Time;durP1;ratioP1;P1;durP2;ratioP2;P2;SDS_P1;SDS_P2;PMS_P1;PMS_P2;Temp;Humidity;BMP_temperature;BMP_pressure;BME280_temperature;BME280_humidity;BME280_pressure;Samples;Min_cycle;Max_cycle;Signal;HPM_P1;HPM_P2
2022/06/23 00:01:43;;;;;;;16.90;8.57;;;;;;;14.45;76.72;101467.88;6394958;22;20355;-89
2022/06/23 00:04:14;;;;;;;15.52;8.65;;;;;;;14.42;77.20;101472.94;6366695;22;20013;-89
2022/06/23 00:06:55;;;;;;;15.75;7.40;;;;;;;14.36;77.27;101477.47;6367058;22;20018;-88
2022/06/23 00:09:38;;;;;;;19.42;8.73;;;;;;;14.34;76.97;101476.88;6395858;22;20002;-89
2022/06/23 00:12:18;;;;;;;12.73;7.75;;;;;;;14.19;77.29;101466.78;6394777;22;20364;-88
2022/06/23 00:14:55;;;;;;;15.85;7.18;;;;;;;14.20;77.46;101473.00;6394944;22;20005;-88
2022/06/23 00:17:29;;;;;;;16.83;7.72;;;;;;;14.12;77.44;101485.03;6395730;22;20498;-88
2022/06/23 00:19:56;;;;;;;19.85;8.60;;;;;;;14.06;77.21;101486.06;6395677;22;20002;-88
2022/06/23 00:22:26;;;;;;;17.88;9.20;;;;;;;13.99;77.58;101490.81;6367505;22;20002;-88
2022/06/23 00:24:56;;;;;;;19.50;9.85;;;;;;;13.94;77.93;101488.06;6393980;22;20001;-88
2022/06/23 00:27:27;;;;;;;18.95;9.35;;;;;;;13.91;78.44;101485.88;6395070;22;20456;-89
2022/06/23 00:29:55;;;;;;;16.98;9.70;;;;;;;13.89;78.77;101482.63;6395421;22;20005;-88
2022/06/23 00:32:21;;;;;;;16.38;8.35;;;;;;;13.83;78.78;101486.34;6395139;22;20005;-88
2022/06/23 00:34:58;;;;;;;17.23;8.88;;;;;;;13.74;78.88;101494.03;6366123;22;20097;-88
2022/06/23 00:37:24;;;;;;;14.30;8.98;;;;;;;13.76;79.06;101491.09;6367056;22;20035;-88
2022/06/23 00:40:07;;;;;;;15.65;9.02;;;;;;;13.70;78.78;101481.31;6394744;22;19997;-88
2022/06/23 00:42:58;;;;;;;17.92;8.45;;;;;;;13.59;79.02;101483.06;6396079;22;20069;-88
2022/06/23 00:45:43;;;;;;;16.02;8.13;;;;;;;13.61;79.15;101484.44;6376129;22;20200;-88
2022/06/23 00:48:40;;;;;;;19.10;8.70;;;;;;;13.51;80.11;101483.50;6395303;22;19997;-88
2022/06/23 00:51:11;;;;;;;14.20;9.10;;;;;;;13.54;79.97;101478.44;6392566;22;20010;-88
2022/06/23 00:53:43;;;;;;;16.27;9.48;;;;;;;13.51;79.80;101484.31;6394204;22;20131;-88
2022/06/23 00:56:23;;;;;;;22.42;10.15;;;;;;;13.49;80.12;101482.94;6393437;22;20018;-88
2022/06/23 00:59:17;;;;;;;15.10;10.13;;;;;;;13.44;80.18;101482.84;6394646;22;20476;-88
2022/06/23 01:01:53;;;;;;;16.25;8.90;;;;;;;13.42;80.31;101485.00;6395305;22;20001;-88
2022/06/23 01:04:44;;;;;;;19.10;9.02;;;;;;;13.34;80.45;101486.25;6394735;22;19998;-88
2022/06/23 01:07:41;;;;;;;15.88;8.32;;;;;;;13.29;80.29;101484.31;6392792;22;20018;-88
2022/06/23 01:10:35;;;;;;;16.02;9.13;;;;;;;13.22;80.58;101480.94;6393214;22;20017;-88
2022/06/23 01:13:28;;;;;;;14.90;8.90;;;;;;;13.18;81.02;101487.09;6394501;22;20006;-88
2022/06/23 01:16:01;;;;;;;16.35;8.70;;;;;;;13.20;80.88;101487.66;6395199;22;20004;-88
2022/06/23 01:18:35;;;;;;;20.27;8.95;;;;;;;13.17;81.22;101483.56;6395793;22;20009;-89
2022/06/23 01:21:28;;;;;;;15.45;9.02;;;;;;;13.11;81.20;101484.56;6367677;22;20253;-89
2022/06/23 01:24:07;;;;;;;19.65;9.50;;;;;;;13.12;81.01;101486.19;6378704;22;20403;-88
2022/06/23 01:26:47;;;;;;;17.52;8.68;;;;;;;13.06;81.20;101489.84;6395357;22;20247;-88
2022/06/23 01:29:39;;;;;;;16.20;9.52;;;;;;;13.00;81.39;101497.03;6394724;22;20571;-88
2022/06/23 01:32:14;;;;;;;17.17;9.25;;;;;;;13.03;82.02;101501.09;6395453;22;20005;-88
2022/06/23 01:35:01;;;;;;;;;;;;;;;12.86;83.20;101493.03;6367221;22;20448;-88
2022/06/23 01:37:41;;;;;;;15.43;9.05;;;;;;;12.86;82.02;101495.72;6396326;22;19932;-88
2022/06/23 01:40:37;;;;;;;20.98;9.18;;;;;;;12.79;82.12;101495.06;6395896;22;20004;-89
2022/06/23 01:43:38;;;;;;;18.48;9.40;;;;;;;12.78;81.98;101493.44;6395072;22;20437;-89
2022/06/23 01:46:21;;;;;;;14.20;9.32;;;;;;;12.73;81.80;101498.72;6387800;22;20123;-89
2022/06/23 01:49:12;;;;;;;15.68;8.98;;;;;;;12.71;82.18;101500.84;6397747;22;20008;-89
2022/06/23 01:51:50;;;;;;;13.98;7.97;;;;;;;12.74;81.79;101494.97;6397414;22;20321;-89
2022/06/23 01:54:22;;;;;;;14.38;8.73;;;;;;;12.74;82.39;101500.34;6397146;22;20005;-88
2022/06/23 01:57:01;;;;;;;12.45;8.20;;;;;;;12.70;81.71;101494.66;6395823;22;20020;-88
2022/06/23 01:59:36;;;;;;;13.98;8.20;;;;;;;12.69;81.66;101497.59;6393645;22;20006;-88
2022/06/23 02:02:02;;;;;;;15.48;8.52;;;;;;;12.64;81.95;101506.38;6394397;22;20005;-88
2022/06/23 02:04:33;;;;;;;17.52;9.65;;;;;;;12.63;82.01;101503.94;6395216;22;20028;-88
2022/06/23 02:07:14;;;;;;;13.65;8.57;;;;;;;12.58;82.44;101511.94;6397261;22;20025;-88
2022/06/23 02:09:49;;;;;;;18.40;8.50;;;;;;;12.58;83.06;101512.75;6396711;22;20006;-88
2022/06/23 02:12:28;;;;;;;16.52;8.32;;;;;;;12.55;82.56;101515.09;6397536;22;20086;-88
2022/06/23 02:15:03;;;;;;;13.48;7.80;;;;;;;12.48;82.21;101517.94;6396983;22;20354;-89
2022/06/23 02:17:35;;;;;;;16.65;8.80;;;;;;;12.38;82.31;101518.53;6397090;22;20321;-89
2022/06/23 02:20:21;;;;;;;15.57;8.10;;;;;;;12.29;82.81;101520.00;6395901;22;20005;-88
2022/06/23 02:22:48;;;;;;;14.63;8.70;;;;;;;12.33;82.75;101531.09;6397084;22;20487;-89
2022/06/23 02:25:25;;;;;;;18.33;9.15;;;;;;;12.29;82.76;101524.56;6396146;22;20018;-88
2022/06/23 02:27:57;;;;;;;15.13;9.05;;;;;;;12.27;82.91;101527.50;6396952;22;20024;-88
2022/06/23 02:30:31;;;;;;;12.38;8.00;;;;;;;12.18;82.77;101528.91;6397421;22;20010;-88
2022/06/23 02:33:02;;;;;;;16.20;7.93;;;;;;;12.17;83.22;101531.84;6395813;22;20002;-89
2022/06/23 02:36:01;;;;;;;12.07;7.30;;;;;;;12.10;83.56;101540.06;6396910;22;20010;-88
2022/06/23 02:38:49;;;;;;;15.63;8.25;;;;;;;12.03;83.22;101540.22;6384206;22;20009;-88
2022/06/23 02:41:24;;;;;;;14.35;7.88;;;;;;;11.99;83.24;101546.28;6396546;22;20226;-88
2022/06/23 02:44:17;;;;;;;16.48;8.48;;;;;;;11.91;83.71;101544.78;6395344;22;20430;-88
2022/06/23 02:47:06;;;;;;;14.18;8.80;;;;;;;11.91;83.90;101544.78;6395990;22;20058;-88
2022/06/23 02:50:11;;;;;;;11.55;7.95;;;;;;;11.90;83.99;101551.22;6372170;22;20510;-88
2022/06/23 02:53:18;;;;;;;13.63;8.30;;;;;;;11.89;84.34;101548.75;6375126;22;20014;-88
2022/06/23 02:56:01;;;;;;;12.73;7.88;;;;;;;11.91;83.75;101549.34;6395868;22;20030;-88
2022/06/23 02:58:50;;;;;;;12.23;7.85;;;;;;;11.92;83.74;101561.72;6397357;22;20049;-88
2022/06/23 03:01:26;;;;;;;13.70;7.68;;;;;;;11.94;83.77;101570.34;6396545;22;20325;-88
2022/06/23 03:04:01;;;;;;;12.88;8.02;;;;;;;11.89;83.78;101560.31;6395927;22;20471;-89
2022/06/23 03:06:50;;;;;;;13.63;8.05;;;;;;;11.85;83.65;101550.25;6397930;22;20044;-88
2022/06/23 03:09:22;;;;;;;15.82;8.73;;;;;;;11.90;83.99;101558.44;6398160;22;19998;-88
2022/06/23 03:11:58;;;;;;;13.00;8.10;;;;;;;11.92;83.81;101562.53;6398191;22;20013;-88
2022/06/23 03:14:26;;;;;;;14.95;8.60;;;;;;;11.96;84.45;101565.56;6396519;22;19997;-88
2022/06/23 03:16:59;;;;;;;16.30;9.10;;;;;;;11.97;84.29;101559.94;6398275;22;20030;-88
2022/06/23 03:19:34;;;;;;;14.82;8.07;;;;;;;11.97;84.30;101557.25;6369452;22;20005;-88
2022/06/23 03:22:09;;;;;;;;;;;;;;;11.91;85.40;101557.41;6397737;22;20002;-89
2022/06/23 03:25:13;;;;;;;14.40;8.57;;;;;;;12.09;84.78;101567.97;6396933;22;19988;-89
2022/06/23 03:27:48;;;;;;;17.08;8.95;;;;;;;12.18;84.73;101571.09;6237709;23;20031;-88
2022/06/23 03:30:22;;;;;;;16.17;9.60;;;;;;;12.29;84.30;101571.06;6238751;23;20136;-88
2022/06/23 03:32:56;;;;;;;16.45;8.93;;;;;;;12.36;84.15;101574.41;6329100;22;20050;-88
2022/06/23 03:35:37;;;;;;;17.38;8.98;;;;;;;12.39;84.03;101576.66;6395169;22;20001;-89
2022/06/23 03:38:13;;;;;;;16.20;8.70;;;;;;;12.51;84.52;101581.13;6397343;22;20063;-88
2022/06/23 03:43:34;;;;;;;;;;;;;;;12.68;85.11;101574.75;6397907;22;20040;-89
2022/06/23 03:46:15;;;;;;;12.27;7.60;;;;;;;12.87;84.37;101586.09;6396817;22;20271;-88
2022/06/23 03:48:51;;;;;;;13.43;7.97;;;;;;;13.04;83.87;101596.06;6396600;22;20002;-88
2022/06/23 03:51:29;;;;;;;16.35;8.73;;;;;;;13.17;83.70;101585.81;6397979;22;20014;-89
2022/06/23 03:54:20;;;;;;;16.98;8.35;;;;;;;13.34;83.34;101595.78;6396924;22;20009;-89
2022/06/23 03:57:37;;;;;;;15.60;9.18;;;;;;;13.47;82.82;101596.25;6396204;22;20001;-88
2022/06/23 04:00:28;;;;;;;13.82;7.88;;;;;;;13.61;82.46;101597.53;6394922;22;20417;-88
2022/06/23 04:03:14;;;;;;;15.63;7.88;;;;;;;13.71;82.04;101602.25;6396707;22;19994;-88
2022/06/23 04:05:54;;;;;;;15.73;7.32;;;;;;;13.82;81.90;101592.41;6395367;22;20021;-88
2022/06/23 04:08:22;;;;;;;13.88;7.53;;;;;;;13.97;81.68;101579.16;6398042;22;20073;-88
2022/06/23 04:10:51;;;;;;;13.25;7.50;;;;;;;14.09;81.63;101582.56;6367574;22;20051;-88
2022/06/23 04:13:36;;;;;;;15.70;8.65;;;;;;;14.21;81.05;101580.56;6396211;22;20002;-89
2022/06/23 04:16:09;;;;;;;12.02;7.60;;;;;;;14.35;80.92;101585.53;6397394;22;20008;-88
2022/06/23 04:18:39;;;;;;;12.32;7.72;;;;;;;14.47;80.45;101578.97;6396762;22;20002;-88
2022/06/23 04:21:14;;;;;;;11.57;7.13;;;;;;;14.58;80.02;101582.59;6397185;22;20208;-89
2022/06/23 04:23:44;;;;;;;12.38;8.02;;;;;;;14.69;79.70;101587.00;6396083;22;20399;-89
2022/06/23 04:26:14;;;;;;;13.23;7.38;;;;;;;14.78;79.42;101582.78;6396318;22;20005;-89
2022/06/23 04:28:47;;;;;;;11.82;6.82;;;;;;;14.91;78.91;101591.56;6397665;22;19997;-88
2022/06/23 04:31:24;;;;;;;12.52;7.50;;;;;;;15.05;79.35;101590.03;6396324;22;20058;-88
2022/06/23 04:33:50;;;;;;;11.80;7.35;;;;;;;15.20;78.89;101590.16;6396384;22;20018;-88
2022/06/23 04:36:31;;;;;;;13.00;7.07;;;;;;;15.27;78.16;101598.88;6396419;22;20548;-88
2022/06/23 04:39:03;;;;;;;12.90;7.55;;;;;;;15.34;77.83;101596.75;6368576;22;20101;-88
2022/06/23 04:41:44;;;;;;;13.43;7.50;;;;;;;15.40;77.77;101601.09;6397346;22;19998;-88
2022/06/23 04:44:22;;;;;;;13.63;8.05;;;;;;;15.50;78.08;101602.25;6396923;22;20006;-88
2022/06/23 04:46:52;;;;;;;12.57;7.75;;;;;;;15.59;77.82;101606.13;6396242;22;20004;-88
2022/06/23 04:49:30;;;;;;;13.13;7.78;;;;;;;15.65;77.75;101603.22;6396190;22;20033;-88
2022/06/23 04:52:12;;;;;;;14.25;7.38;;;;;;;15.79;77.86;101606.25;6396923;22;20002;-88
2022/06/23 04:54:54;;;;;;;12.73;6.88;;;;;;;15.86;77.75;101606.84;6396444;22;20032;-88
2022/06/23 04:57:34;;;;;;;15.25;6.47;;;;;;;16.01;77.58;101619.63;6396652;22;20006;-88
2022/06/23 05:00:03;;;;;;;11.57;7.10;;;;;;;16.17;77.05;101625.91;6396896;22;19998;-89
2022/06/23 05:02:37;;;;;;;15.50;7.53;;;;;;;16.26;77.18;101616.19;6396373;22;19994;-89
2022/06/23 05:05:19;;;;;;;11.40;6.90;;;;;;;16.38;76.74;101621.38;6396807;22;20013;-88
2022/06/23 05:08:03;;;;;;;12.25;6.38;;;;;;;16.49;76.49;101609.50;6396853;22;20012;-89
2022/06/23 05:10:35;;;;;;;8.85;6.53;;;;;;;16.63;76.18;101622.25;6397861;22;20364;-89
2022/06/23 05:13:00;;;;;;;9.73;6.80;;;;;;;16.73;76.17;101618.00;6397440;22;20009;-89
2022/06/23 05:15:44;;;;;;;10.63;6.53;;;;;;;16.81;75.53;101618.28;6396685;22;20378;-88
2022/06/23 05:18:17;;;;;;;10.18;5.32;;;;;;;16.90;75.55;101613.16;6395464;22;20001;-89
2022/06/23 05:21:05;;;;;;;9.32;5.93;;;;;;;16.98;75.27;101611.78;6394790;22;20073;-88
2022/06/23 05:23:40;;;;;;;8.40;5.57;;;;;;;17.10;74.87;101626.69;6398181;22;19998;-89
2022/06/23 05:26:22;;;;;;;9.50;5.95;;;;;;;17.23;74.67;101630.75;6397372;22;20460;-89
2022/06/23 05:28:52;;;;;;;11.02;5.43;;;;;;;17.39;74.38;101634.28;6398426;22;19998;-89
2022/06/23 05:31:23;;;;;;;14.35;5.53;;;;;;;17.49;73.60;101634.28;6398730;22;20076;-88
2022/06/23 05:33:53;;;;;;;9.15;4.85;;;;;;;17.59;73.13;101626.13;6397781;22;19998;-89
2022/06/23 05:36:27;;;;;;;14.73;4.95;;;;;;;17.64;72.40;101628.84;6370584;22;20005;-89
2022/06/23 05:38:57;;;;;;;14.73;5.43;;;;;;;17.73;72.27;101629.91;6397849;22;20005;-89
2022/06/23 05:41:52;;;;;;;8.77;4.35;;;;;;;17.82;71.82;101630.19;6398733;22;19998;-89
2022/06/23 05:44:23;;;;;;;10.43;4.22;;;;;;;17.93;71.17;101630.94;6390579;22;20050;-89
2022/06/23 05:46:50;;;;;;;7.50;3.97;;;;;;;18.06;70.49;101630.38;6396840;22;20081;-89
2022/06/23 05:49:25;;;;;;;6.10;3.75;;;;;;;18.18;69.92;101630.88;6398145;22;20329;-89
2022/06/23 05:52:14;;;;;;;11.52;3.40;;;;;;;18.27;69.44;101623.78;6398885;22;20352;-90
2022/06/23 05:55:26;;;;;;;7.70;3.05;;;;;;;18.46;68.43;101628.56;6399923;22;20358;-89
2022/06/23 05:58:15;;;;;;;8.25;3.25;;;;;;;18.63;68.45;101632.56;6277671;22;20010;-89
2022/06/23 06:00:54;;;;;;;4.78;3.05;;;;;;;18.74;68.16;101636.06;6377058;22;20002;-89
2022/06/23 06:03:34;;;;;;;5.75;3.08;;;;;;;18.86;67.44;101635.72;6397388;22;20025;-90
2022/06/23 06:06:01;;;;;;;3.33;2.92;;;;;;;18.91;66.93;101633.78;6399527;22;20013;-89
2022/06/23 06:11:34;;;;;;;5.63;3.33;;;;;;;19.11;66.11;101640.94;6398355;22;20048;-89
2022/06/23 06:14:04;;;;;;;4.93;3.60;;;;;;;19.19;66.13;101644.97;6399866;22;20009;-90
2022/06/23 06:16:31;;;;;;;7.50;3.80;;;;;;;19.33;66.33;101640.50;6399488;22;20001;-90
2022/06/23 06:18:56;;;;;;;5.97;3.90;;;;;;;19.40;65.30;101642.91;6398829;22;19997;-89
2022/06/23 06:21:25;;;;;;;4.40;3.28;;;;;;;19.44;65.16;101650.19;6400243;22;19990;-89
2022/06/23 06:24:36;;;;;;;6.18;3.47;;;;;;;19.43;64.98;101642.31;6400564;22;19998;-89
2022/06/23 06:27:04;;;;;;;6.22;3.40;;;;;;;19.61;64.53;101652.53;6241487;23;20023;-89
2022/06/23 06:29:34;;;;;;;7.70;4.20;;;;;;;19.66;63.95;101649.75;6241243;23;20008;-89
2022/06/23 06:32:25;;;;;;;4.60;3.00;;;;;;;19.66;63.67;101660.63;6328973;22;20001;-88
2022/06/23 06:34:56;;;;;;;3.08;2.50;;;;;;;19.79;63.21;101659.13;6400668;22;20002;-89
2022/06/23 06:37:27;;;;;;;3.33;2.47;;;;;;;19.84;62.57;101667.25;6400789;22;20017;-90
2022/06/23 06:40:00;;;;;;;7.00;2.33;;;;;;;19.86;62.48;101662.31;6400372;22;19997;-89
2022/06/23 06:42:32;;;;;;;3.45;2.63;;;;;;;19.92;62.06;101663.88;6400809;22;20389;-90
2022/06/23 06:45:03;;;;;;;4.55;2.95;;;;;;;20.00;62.03;101670.59;6400174;22;20058;-89
2022/06/23 06:47:32;;;;;;;5.22;2.95;;;;;;;20.09;61.90;101666.94;6401088;22;20076;-89
2022/06/23 06:50:16;;;;;;;4.60;2.60;;;;;;;20.10;61.33;101671.28;6400000;22;20045;-90
2022/06/23 06:52:47;;;;;;;6.32;2.63;;;;;;;20.19;61.34;101666.03;6400227;22;20481;-89
2022/06/23 06:55:41;;;;;;;8.50;3.72;;;;;;;20.16;60.67;101670.16;6400264;22;20001;-89
2022/06/23 06:58:20;;;;;;;5.10;3.75;;;;;;;20.23;61.01;101665.16;6384506;22;20014;-89
2022/06/23 07:00:55;;;;;;;6.15;4.13;;;;;;;20.34;60.69;101665.03;6400392;22;20001;-89
2022/06/23 07:03:24;;;;;;;5.55;2.78;;;;;;;20.44;60.84;101665.75;6399577;22;20013;-88
2022/06/23 07:05:56;;;;;;;4.00;2.88;;;;;;;20.56;59.81;101664.50;6399530;22;20050;-89
2022/06/23 07:08:51;;;;;;;4.38;3.22;;;;;;;20.64;59.61;101666.56;6399968;22;20002;-90
2022/06/23 07:11:33;;;;;;;5.93;3.08;;;;;;;20.77;59.05;101669.38;6399900;22;20025;-89
2022/06/23 07:14:11;;;;;;;8.52;3.30;;;;;;;20.80;59.02;101671.50;6399136;22;20059;-89
2022/06/23 07:16:57;;;;;;;5.18;3.40;;;;;;;20.83;58.41;101667.41;6398754;22;20282;-90
2022/06/23 07:19:23;;;;;;;4.32;2.53;;;;;;;20.98;58.96;101664.44;6399862;22;20537;-89
2022/06/23 07:21:55;;;;;;;4.45;3.15;;;;;;;21.12;59.33;101670.75;6399615;22;20194;-89
2022/06/23 07:24:38;;;;;;;8.55;3.83;;;;;;;21.24;59.22;101673.06;6399967;22;20002;-90
2022/06/23 07:27:32;;;;;;;7.03;3.67;;;;;;;21.45;58.69;101673.53;6399963;22;20017;-90
2022/06/23 07:30:06;;;;;;;6.38;3.83;;;;;;;21.63;58.39;101680.06;6377562;22;19998;-89
2022/06/23 07:32:41;;;;;;;7.25;3.45;;;;;;;21.76;58.21;101673.81;6400613;22;19998;-90
2022/06/23 07:35:18;;;;;;;4.03;3.63;;;;;;;21.87;57.56;101671.69;6400022;22;20002;-89
2022/06/23 07:37:52;;;;;;;10.32;3.67;;;;;;;21.93;57.62;101674.03;6400505;22;20333;-90
2022/06/23 07:40:22;;;;;;;5.73;3.77;;;;;;;21.99;57.77;101667.38;6400157;22;20002;-89
2022/06/23 07:42:48;;;;;;;4.30;3.40;;;;;;;22.06;57.40;101679.81;6400148;22;19994;-90
2022/06/23 07:45:22;;;;;;;4.97;3.67;;;;;;;22.08;57.13;101669.41;6399688;22;20044;-90
2022/06/23 07:47:48;;;;;;;8.20;3.53;;;;;;;22.14;57.09;101674.47;6400328;22;20001;-90
2022/06/23 07:50:14;;;;;;;6.30;3.20;;;;;;;22.19;56.88;101676.28;6371560;22;20425;-90
2022/06/23 07:52:42;;;;;;;5.50;3.30;;;;;;;22.21;56.58;101674.06;6399875;22;20025;-89
2022/06/23 07:55:17;;;;;;;8.18;3.33;;;;;;;22.27;56.71;101679.13;6399590;22;20081;-90
2022/06/23 07:57:45;;;;;;;6.13;3.13;;;;;;;22.41;56.50;101675.56;6400304;22;20010;-90
2022/06/23 08:00:15;;;;;;;7.55;2.95;;;;;;;22.47;55.92;101672.44;6400370;22;19994;-90
2022/06/23 08:03:03;;;;;;;5.88;2.70;;;;;;;22.47;55.54;101677.91;6400243;22;20001;-89
2022/06/23 08:05:42;;;;;;;7.07;3.90;;;;;;;22.57;55.33;101672.22;6400854;22;20439;-90
2022/06/23 08:08:12;;;;;;;7.53;2.75;;;;;;;22.70;54.98;101675.22;6400486;22;20001;-89
2022/06/23 08:10:39;;;;;;;5.93;3.22;;;;;;;22.82;54.34;101672.81;6400157;22;20002;-90
2022/06/23 08:13:25;;;;;;;6.60;2.95;;;;;;;22.82;53.35;101678.28;6400068;22;20102;-90
2022/06/23 08:18:59;;;;;;;5.15;3.15;;;;;;;22.77;52.70;101670.13;6400181;22;20013;-90
2022/06/23 08:21:31;;;;;;;3.00;2.55;;;;;;;22.84;53.07;101681.50;6401069;22;20190;-90
2022/06/23 08:24:24;;;;;;;7.22;2.65;;;;;;;22.97;52.05;101675.16;6399221;22;20009;-89
2022/06/23 08:27:13;;;;;;;7.88;2.80;;;;;;;23.12;52.92;101666.59;6400497;22;20002;-90
2022/06/23 08:29:45;;;;;;;6.35;3.03;;;;;;;23.30;52.07;101674.94;6400030;22;20006;-90
2022/06/23 08:32:12;;;;;;;7.10;3.17;;;;;;;23.31;52.34;101673.81;6400378;22;20360;-90
2022/06/23 08:34:45;;;;;;;5.10;2.90;;;;;;;23.34;51.91;101670.44;6371717;22;20092;-90
2022/06/23 08:37:21;;;;;;;5.15;2.63;;;;;;;23.36;51.66;101671.78;6399954;22;20005;-90
2022/06/23 08:39:59;;;;;;;6.82;2.65;;;;;;;23.52;52.20;101674.94;6401077;22;19994;-90
2022/06/23 08:42:48;;;;;;;7.47;2.83;;;;;;;23.62;51.88;101673.88;6400753;22;20002;-90
2022/06/23 08:45:40;;;;;;;3.88;2.78;;;;;;;23.67;51.14;101673.72;6379481;22;19998;-89
2022/06/23 08:48:22;;;;;;;5.55;2.97;;;;;;;23.72;51.10;101677.16;6400187;22;20001;-90
2022/06/23 08:50:56;;;;;;;5.53;2.72;;;;;;;23.91;51.25;101665.19;6401184;22;20027;-90
2022/06/23 08:53:32;;;;;;;4.85;2.90;;;;;;;23.99;51.21;101673.41;6401587;22;20005;-90
2022/06/23 08:56:10;;;;;;;7.68;2.88;;;;;;;24.05;50.77;101661.19;6400562;22;20483;-90
2022/06/23 08:58:47;;;;;;;3.85;2.75;;;;;;;24.19;48.93;101666.56;6400059;22;20004;-90
2022/06/23 09:01:38;;;;;;;3.85;2.28;;;;;;;24.20;47.83;101667.34;6400055;22;19994;-91
2022/06/23 09:04:17;;;;;;;4.85;2.22;;;;;;;24.26;48.43;101666.91;6400623;22;19994;-91
2022/06/23 09:06:57;;;;;;;7.13;2.30;;;;;;;24.29;47.52;101666.31;6399140;22;20001;-90
2022/06/23 09:10:06;;;;;;;6.05;2.80;;;;;;;24.36;48.37;101674.03;6400191;22;19994;-90
2022/06/23 09:13:07;;;;;;;6.72;2.55;;;;;;;24.52;45.80;101660.69;6396266;22;20013;-90
2022/06/23 09:16:10;;;;;;;5.28;2.35;;;;;;;24.53;45.37;101656.84;6372518;22;20001;-90
2022/06/23 09:18:57;;;;;;;4.88;2.47;;;;;;;24.65;46.58;101649.59;6400398;22;20054;-90
2022/06/23 09:22:17;;;;;;;4.47;2.10;;;;;;;24.72;46.53;101665.56;6400343;22;20090;-90
2022/06/23 09:24:48;;;;;;;7.28;2.75;;;;;;;24.84;46.44;101654.78;6241221;23;20064;-90
2022/06/23 09:27:34;;;;;;;4.28;2.58;;;;;;;24.90;47.63;101658.94;6371882;22;20002;-90
2022/06/23 09:30:08;;;;;;;4.38;2.17;;;;;;;25.02;47.61;101660.28;6399226;22;20006;-90
2022/06/23 09:33:02;;;;;;;3.75;2.53;;;;;;;25.00;48.30;101658.66;6399375;22;20140;-90
2022/06/23 09:35:40;;;;;;;4.40;3.03;;;;;;;25.01;48.17;101659.47;6399030;22;19994;-91
2022/06/23 09:38:22;;;;;;;4.20;2.85;;;;;;;25.03;48.24;101661.88;6400174;22;20020;-91
2022/06/23 09:41:15;;;;;;;7.47;2.92;;;;;;;25.09;47.18;101655.09;6399971;22;20032;-91
2022/06/23 09:44:22;;;;;;;3.92;2.28;;;;;;;25.18;48.72;101658.66;6399667;22;20013;-90
2022/06/23 09:47:06;;;;;;;3.33;2.67;;;;;;;25.24;47.34;101654.59;6325439;22;19998;-90
2022/06/23 09:53:53;;;;;;;3.45;2.45;;;;;;;25.22;46.01;101654.94;6304531;22;20018;-90
2022/06/23 09:56:55;;;;;;;3.50;2.47;;;;;;;25.23;46.49;101651.06;6342662;22;20009;-90
2022/06/23 09:59:35;;;;;;;3.95;2.63;;;;;;;25.37;46.38;101652.81;6399167;22;20021;-91
2022/06/23 10:02:42;;;;;;;4.75;2.28;;;;;;;25.36;45.77;101646.53;6398720;22;20008;-89
2022/06/23 10:05:35;;;;;;;3.95;2.58;;;;;;;25.46;46.19;101651.63;6239586;23;20407;-90
2022/06/23 10:08:07;;;;;;;4.22;2.45;;;;;;;25.61;46.60;101650.31;6240570;23;20004;-91
2022/06/23 10:11:03;;;;;;;4.97;2.60;;;;;;;25.63;46.08;101644.50;6353880;22;20236;-92
2022/06/23 10:13:55;;;;;;;4.10;2.25;;;;;;;25.81;45.19;101643.31;6401887;22;20010;-92
2022/06/23 10:16:33;;;;;;;3.67;2.63;;;;;;;25.86;44.12;101634.94;6401473;22;20002;-91
2022/06/23 10:19:26;;;;;;;4.65;2.55;;;;;;;25.84;41.50;101627.00;6401698;22;20055;-93
2022/06/23 10:21:57;;;;;;;4.75;2.15;;;;;;;25.85;41.81;101633.28;6401509;22;19999;-92
2022/06/23 10:24:55;;;;;;;3.45;2.10;;;;;;;25.87;41.56;101623.63;6401900;22;20002;-93
2022/06/23 10:28:08;;;;;;;2.22;1.75;;;;;;;25.97;40.96;101621.63;6401595;22;20085;-93
2022/06/23 10:30:42;;;;;;;2.67;2.00;;;;;;;26.14;41.57;101624.25;6242905;23;20000;-92
2022/06/23 10:33:36;;;;;;;4.35;1.98;;;;;;;26.11;41.22;101620.25;6244292;23;20008;-92
2022/06/23 10:36:23;;;;;;;2.28;1.88;;;;;;;26.17;39.46;101624.41;6365122;22;20010;-93
2022/06/23 10:39:19;;;;;;;3.20;1.92;;;;;;;26.17;40.29;101624.41;6403008;22;20001;-92
2022/06/23 10:42:28;;;;;;;;;;;;;;;;;;;;;
2022/06/23 10:45:10;;;;;;;3.70;2.40;;;;;;;26.41;40.39;101618.31;6393942;22;20077;-93
2022/06/23 10:48:24;;;;;;;4.70;2.22;;;;;;;26.36;39.49;101615.75;6403023;22;20081;-92
2022/06/23 10:51:12;;;;;;;2.70;2.10;;;;;;;26.40;39.74;101615.91;6401527;22;20001;-91
2022/06/23 10:53:40;;;;;;;5.50;2.22;;;;;;;26.47;40.03;101607.91;6401132;22;20002;-92
2022/06/23 10:57:07;;;;;;;;;;;;;;;;;;;;;
2022/06/23 11:00:14;;;;;;;3.00;2.20;;;;;;;26.61;41.31;101613.97;6402788;22;20017;-92
2022/06/23 11:03:52;;;;;;;5.40;2.67;;;;;;;26.64;42.81;101610.53;6402100;22;20055;-92
2022/06/23 11:13:40;;;;;;;3.00;2.40;;;;;;;26.89;42.42;101605.94;6348871;22;20021;-91
2022/06/23 11:16:50;;;;;;;4.53;2.70;;;;;;;27.06;41.84;101597.53;6245584;22;20011;-92
2022/06/23 11:19:55;;;;;;;3.50;2.40;;;;;;;27.07;41.77;101593.66;6400870;22;20069;-91
2022/06/23 11:22:44;;;;;;;3.78;2.28;;;;;;;27.24;42.12;101600.91;6395885;22;20004;-92
2022/06/23 11:25:53;;;;;;;3.30;2.30;;;;;;;27.28;41.38;101598.28;6401338;22;20002;-93
2022/06/23 11:32:04;;;;;;;5.63;3.15;;;;;;;27.44;40.66;101590.19;6401413;22;20017;-92
2022/06/23 11:34:58;;;;;;;4.80;2.20;;;;;;;27.47;40.57;101595.81;6400207;22;20489;-92
2022/06/23 11:38:03;;;;;;;4.18;2.35;;;;;;;27.49;41.20;101587.22;6401923;22;20047;-93
2022/06/23 11:40:55;;;;;;;2.83;2.30;;;;;;;27.56;40.15;101585.50;6403563;22;20436;-93
2022/06/23 11:43:39;;;;;;;3.90;2.50;;;;;;;27.71;40.68;101583.25;6400774;22;20001;-93
2022/06/23 11:46:29;;;;;;;5.30;2.30;;;;;;;27.69;40.37;101572.59;6402257;22;20007;-92
2022/06/23 11:49:16;;;;;;;3.75;2.17;;;;;;;27.81;39.77;101574.50;6402874;22;20016;-92
2022/06/23 11:52:28;;;;;;;5.03;2.42;;;;;;;27.85;39.48;101576.25;6401025;22;20421;-91
2022/06/23 11:55:08;;;;;;;10.50;2.47;;;;;;;28.01;39.95;101576.34;6362664;22;20009;-92
2022/06/23 11:58:07;;;;;;;2.50;2.17;;;;;;;27.97;39.71;101576.22;6401974;22;20133;-92
2022/06/23 12:01:14;;;;;;;3.17;1.88;;;;;;;28.04;39.48;101578.41;6400723;22;20021;-93
2022/06/23 12:03:42;;;;;;;6.10;2.20;;;;;;;28.18;40.07;101575.25;6376192;22;20492;-92
2022/06/23 12:06:19;;;;;;;3.72;1.98;;;;;;;28.27;39.58;101576.78;6373255;22;19998;-91
2022/06/23 12:08:59;;;;;;;4.28;2.05;;;;;;;28.36;39.52;101568.34;6400963;22;20059;-92
2022/06/23 12:11:38;;;;;;;5.60;2.10;;;;;;;28.36;38.83;101570.31;6401076;22;20020;-93
2022/06/23 12:14:09;;;;;;;3.03;1.80;;;;;;;28.37;39.05;101567.25;6400791;22;20436;-91
2022/06/23 12:17:16;;;;;;;7.00;1.85;;;;;;;28.31;37.76;101565.84;6400045;22;20002;-91
2022/06/23 12:19:59;;;;;;;3.40;1.65;;;;;;;28.50;38.44;101563.28;6356721;22;20021;-91
2022/06/23 12:22:36;;;;;;;2.75;1.60;;;;;;;28.53;37.73;101565.31;6401366;22;20433;-93
2022/06/23 12:25:25;;;;;;;2.42;1.80;;;;;;;28.63;38.91;101561.28;6401593;22;20009;-92
2022/06/23 12:28:24;;;;;;;5.57;1.63;;;;;;;28.67;36.72;101558.63;6400978;22;19994;-92
2022/06/23 12:31:27;;;;;;;3.88;1.80;;;;;;;28.77;37.63;101560.88;6401592;22;20389;-92
2022/06/23 12:34:26;;;;;;;2.13;1.63;;;;;;;28.85;36.06;101555.19;6402968;22;20006;-93
2022/06/23 12:37:28;;;;;;;3.13;1.38;;;;;;;28.86;35.89;101569.81;6402300;22;20001;-92
2022/06/23 12:40:04;;;;;;;3.55;1.50;;;;;;;28.96;36.79;101571.28;6403153;22;20008;-93
2022/06/23 12:42:43;;;;;;;2.92;1.13;;;;;;;28.95;36.08;101567.72;6403744;22;20005;-92
2022/06/23 12:45:23;;;;;;;3.03;1.27;;;;;;;29.06;36.70;101571.53;6403167;22;20008;-91
2022/06/23 12:48:17;;;;;;;5.22;1.60;;;;;;;29.10;34.35;101566.13;6402747;22;20008;-93
2022/06/23 12:51:06;;;;;;;5.28;1.33;;;;;;;29.22;35.38;101560.53;6403061;22;20025;-93
2022/06/23 12:54:35;;;;;;;;;;;;;;;;;;;;;
2022/06/23 12:57:34;;;;;;;3.47;1.50;;;;;;;29.48;35.15;101558.06;6239704;23;20091;-93
2022/06/23 13:00:26;;;;;;;1.95;1.45;;;;;;;29.56;34.10;101561.78;6334777;22;20012;-92